createdAt,value
2023-05-07T00:03:50.638Z,4.43
2023-05-07T00:07:53.661Z,3.03
2023-05-07T00:11:55.876Z,3.13
2023-05-07T00:15:57.681Z,4.90
2023-05-07T00:19:59.369Z,8.35
2023-05-07T00:24:01.124Z,5.53
2023-05-07T00:28:04.666Z,4.53
2023-05-07T00:32:06.457Z,6.93
2023-05-07T00:36:08.380Z,1.75
2023-05-07T00:40:10.686Z,3.42
2023-05-07T00:44:12.611Z,3.00
2023-05-07T00:48:15.275Z,4.68
2023-05-07T00:52:20.754Z,1.92
2023-05-07T00:56:23.624Z,2.35
2023-05-07T01:04:28.260Z,2.03
2023-05-07T01:08:31.048Z,1.38
2023-05-07T01:12:33.405Z,3.83
2023-05-07T01:16:35.152Z,6.07
2023-05-07T01:20:36.989Z,2.97
2023-05-07T01:24:39.517Z,2.53
2023-05-07T01:28:41.222Z,2.22
2023-05-07T01:32:53.333Z,3.88
2023-05-07T01:36:56.772Z,4.20
2023-05-07T01:40:59.206Z,3.97
2023-05-07T01:45:01.180Z,2.90
2023-05-07T01:49:03.139Z,6.67
2023-05-07T01:53:04.832Z,5.53
2023-05-07T01:57:06.551Z,4.43
2023-05-07T02:01:08.197Z,2.95
2023-05-07T02:05:10.439Z,5.50
2023-05-07T02:09:12.455Z,5.07
2023-05-07T02:13:14.261Z,5.80
2023-05-07T02:17:16.019Z,4.40
2023-05-07T02:21:17.746Z,3.08
2023-05-07T02:25:19.438Z,6.90
2023-05-07T02:29:21.116Z,5.85
2023-05-07T02:33:22.816Z,3.08
2023-05-07T02:37:24.454Z,4.45
2023-05-07T02:41:26.125Z,3.08
2023-05-07T02:45:27.764Z,7.00
2023-05-07T02:49:29.637Z,3.67
2023-05-07T02:53:31.329Z,3.40
2023-05-07T02:57:32.974Z,12.90
2023-05-07T03:01:34.696Z,1.60
2023-05-07T03:05:36.479Z,5.07
2023-05-07T03:09:38.188Z,5.07
2023-05-07T03:13:39.933Z,3.88
2023-05-07T03:17:41.752Z,3.05
2023-05-07T03:21:43.521Z,2.78
2023-05-07T03:25:45.339Z,2.28
2023-05-07T03:29:47.111Z,1.55
2023-05-07T03:33:56.816Z,1.60
2023-05-07T03:37:58.518Z,5.68
2023-05-07T03:42:00.704Z,5.55
2023-05-07T03:46:02.497Z,2.30
2023-05-07T03:50:04.673Z,1.83
2023-05-07T03:54:06.475Z,1.83
2023-05-07T03:58:08.191Z,3.30
2023-05-07T04:02:10.742Z,4.68
2023-05-07T04:06:13.302Z,2.63
2023-05-07T04:10:15.154Z,1.92
2023-05-07T04:14:16.850Z,3.50
2023-05-07T04:18:18.770Z,5.40
2023-05-07T04:22:20.559Z,1.33
2023-05-07T04:26:22.432Z,4.05
2023-05-07T04:30:24.158Z,3.20
2023-05-07T04:34:25.864Z,3.58
2023-05-07T04:38:27.605Z,2.97
2023-05-07T04:42:29.343Z,3.67
2023-05-07T04:46:31.506Z,1.83
2023-05-07T04:50:33.906Z,3.73
2023-05-07T04:54:36.235Z,4.28
2023-05-07T04:58:38.044Z,5.05
2023-05-07T05:02:39.837Z,3.30
2023-05-07T05:06:42.048Z,2.80
2023-05-07T05:10:44.362Z,2.80
2023-05-07T05:14:46.291Z,4.13
2023-05-07T05:18:47.984Z,1.45
2023-05-07T05:22:50.023Z,2.72
2023-05-07T05:26:54.835Z,3.67
2023-05-07T05:30:56.823Z,1.77
2023-05-07T05:34:58.600Z,1.50
2023-05-07T05:39:00.369Z,2.17
2023-05-07T05:43:02.141Z,2.90
2023-05-07T05:47:04.461Z,1.38
2023-05-07T05:51:06.277Z,1.30
2023-05-07T05:55:08.483Z,4.35
2023-05-07T05:59:10.993Z,4.03
2023-05-07T06:03:14.515Z,11.20
2023-05-07T06:07:16.413Z,7.25
2023-05-07T06:11:18.978Z,6.10
2023-05-07T06:15:20.804Z,4.05
2023-05-07T06:19:24.950Z,5.55
2023-05-07T06:23:26.839Z,2.55
2023-05-07T06:27:29.141Z,3.67
2023-05-07T06:31:34.762Z,4.13
2023-05-07T06:35:36.643Z,4.65
2023-05-07T06:39:38.594Z,6.10
2023-05-07T06:43:40.519Z,5.47
2023-05-07T06:47:42.300Z,4.53
2023-05-07T06:51:44.038Z,8.35
2023-05-07T06:55:45.785Z,8.25
2023-05-07T06:59:47.540Z,2.15
2023-05-07T07:03:49.622Z,4.15
2023-05-07T07:07:53.727Z,8.50
2023-05-07T07:11:55.682Z,3.55
2023-05-07T07:16:01.306Z,1.90
2023-05-07T07:20:03.814Z,2.53
2023-05-07T07:24:06.027Z,3.60
2023-05-07T07:28:07.817Z,7.43
2023-05-07T07:32:09.638Z,2.85
2023-05-07T07:36:11.376Z,6.05
2023-05-07T07:40:13.816Z,3.22
2023-05-07T07:44:16.613Z,4.07
2023-05-07T07:48:18.585Z,3.28
2023-05-07T07:52:20.893Z,3.90
2023-05-07T07:56:23.273Z,2.97
2023-05-07T08:00:25.038Z,4.45
2023-05-07T08:04:26.827Z,8.60
2023-05-07T08:08:28.765Z,2.10
2023-05-07T08:12:31.515Z,8.17
2023-05-07T08:20:40.390Z,6.70
2023-05-07T08:24:42.627Z,3.47
2023-05-07T08:28:45.541Z,5.57
2023-05-07T08:32:47.908Z,3.63
2023-05-07T08:36:50.146Z,8.90
2023-05-07T08:40:54.376Z,3.47
2023-05-07T08:45:00.419Z,2.35
2023-05-07T08:49:02.423Z,4.13
2023-05-07T08:53:06.883Z,2.43
2023-05-07T08:57:09.411Z,4.00
2023-05-07T09:01:16.748Z,3.83
2023-05-07T09:05:19.827Z,4.03
2023-05-07T09:09:23.543Z,7.43
2023-05-07T09:13:26.212Z,13.80
2023-05-07T09:17:29.327Z,3.17
2023-05-07T09:21:31.284Z,3.70
2023-05-07T09:25:35.857Z,6.80
2023-05-07T09:29:38.108Z,6.75
2023-05-07T09:33:41.053Z,2.55
2023-05-07T09:37:43.088Z,2.58
2023-05-07T09:41:46.456Z,2.92
2023-05-07T09:45:52.729Z,4.63
2023-05-07T09:49:59.128Z,4.88
2023-05-07T09:54:04.378Z,4.47
2023-05-07T09:58:07.448Z,3.50
2023-05-07T10:02:11.399Z,5.03
2023-05-07T10:06:14.045Z,6.20
2023-05-07T10:14:20.333Z,6.75
2023-05-07T10:18:30.841Z,3.67
2023-05-07T10:22:41.981Z,3.95
2023-05-07T10:26:50.356Z,8.88
2023-05-07T10:31:07.313Z,3.22
2023-05-07T10:35:17.194Z,4.60
2023-05-07T10:39:20.585Z,5.15
2023-05-07T10:43:23.164Z,5.13
2023-05-07T10:51:33.689Z,8.25
2023-05-07T10:55:35.811Z,6.53
2023-05-07T10:59:43.302Z,6.30
2023-05-07T11:04:14.924Z,3.80
2023-05-07T11:08:16.927Z,4.63
2023-05-07T11:12:37.060Z,4.82
2023-05-07T11:16:41.291Z,4.30
2023-05-07T11:20:46.988Z,4.82
2023-05-07T11:24:48.752Z,5.18
2023-05-07T11:28:51.286Z,8.63
2023-05-07T11:32:53.115Z,3.40
2023-05-07T11:36:55.405Z,8.10
2023-05-07T11:41:03.471Z,4.82
2023-05-07T11:45:08.447Z,8.27
2023-05-07T11:49:10.730Z,3.15
2023-05-07T11:53:14.260Z,5.30
2023-05-07T11:57:16.713Z,2.35
2023-05-07T12:01:19.373Z,6.13
2023-05-07T12:09:35.273Z,4.70
2023-05-07T12:13:37.277Z,11.13
2023-05-07T12:17:44.440Z,3.58
2023-05-07T12:21:46.487Z,4.05
2023-05-07T12:25:48.665Z,8.30
2023-05-07T12:29:51.868Z,10.35
2023-05-07T12:33:55.031Z,5.82
2023-05-07T12:38:05.175Z,5.75
2023-05-07T12:42:07.351Z,6.07
2023-05-07T12:46:10.059Z,6.63
2023-05-07T12:54:14.387Z,7.20
2023-05-07T12:58:21.384Z,5.20
2023-05-07T13:02:34.345Z,10.25
2023-05-07T13:06:36.349Z,7.45
2023-05-07T13:10:38.184Z,5.20
2023-05-07T13:14:40.450Z,2.90
2023-05-07T13:18:44.805Z,4.28
2023-05-07T13:22:46.978Z,4.90
2023-05-07T13:26:48.683Z,10.73
2023-05-07T13:30:52.694Z,8.48
2023-05-07T13:34:54.428Z,8.13
2023-05-07T13:38:56.180Z,5.95
2023-05-07T13:43:03.259Z,7.28
2023-05-07T13:47:05.599Z,11.30
2023-05-07T13:51:07.662Z,5.95
2023-05-07T13:55:10.060Z,10.50
2023-05-07T13:59:11.756Z,7.50
2023-05-07T14:03:13.489Z,4.10
2023-05-07T14:07:16.014Z,11.40
2023-05-07T14:11:17.883Z,5.57
2023-05-07T14:15:19.653Z,4.63
2023-05-07T14:19:23.650Z,6.43
2023-05-07T14:23:27.469Z,8.95
2023-05-07T14:27:29.241Z,7.85
2023-05-07T14:31:31.098Z,6.38
2023-05-07T14:35:33.241Z,8.40
2023-05-07T14:39:34.978Z,6.20
2023-05-07T14:43:36.730Z,5.43
2023-05-07T14:47:38.489Z,5.13
2023-05-07T14:51:40.224Z,3.40
2023-05-07T14:55:42.003Z,5.65
2023-05-07T14:59:43.787Z,4.30
2023-05-07T15:03:45.923Z,4.25
2023-05-07T15:07:48.086Z,3.22
2023-05-07T15:11:49.974Z,2.40
2023-05-07T15:15:51.914Z,4.90
2023-05-07T15:19:54.656Z,6.23
2023-05-07T15:23:58.556Z,5.50
2023-05-07T15:28:00.263Z,6.75
2023-05-07T15:32:02.074Z,4.70
2023-05-07T15:36:04.249Z,4.77
2023-05-07T15:40:07.733Z,5.78
2023-05-07T15:44:09.666Z,7.32
2023-05-07T15:48:11.677Z,12.47
2023-05-07T15:52:15.801Z,6.72
2023-05-07T15:56:18.144Z,4.03
2023-05-07T16:00:20.062Z,11.57
2023-05-07T16:04:21.844Z,5.30
2023-05-07T16:08:24.186Z,6.82
2023-05-07T16:12:25.890Z,6.35
2023-05-07T16:16:30.117Z,6.70
2023-05-07T16:20:32.603Z,10.88
2023-05-07T16:24:34.389Z,8.57
2023-05-07T16:28:36.085Z,15.70
2023-05-07T16:32:37.863Z,17.33
2023-05-07T16:36:39.693Z,13.37
2023-05-07T16:40:42.023Z,8.15
2023-05-07T16:44:43.934Z,10.00
2023-05-07T16:48:45.625Z,12.00
2023-05-07T16:52:47.381Z,5.82
2023-05-07T16:56:49.127Z,7.65
2023-05-07T17:00:51.380Z,9.15
2023-05-07T17:04:53.249Z,8.68
2023-05-07T17:08:56.876Z,7.55
2023-05-07T17:12:58.777Z,9.13
2023-05-07T17:17:00.802Z,14.07
2023-05-07T17:21:02.549Z,6.60
2023-05-07T17:25:04.790Z,6.15
2023-05-07T17:29:06.555Z,6.93
2023-05-07T17:33:20.211Z,6.75
2023-05-07T17:37:23.817Z,10.07
2023-05-07T17:41:25.709Z,9.68
2023-05-07T17:45:27.703Z,9.10
2023-05-07T17:49:29.377Z,8.30
2023-05-07T17:53:31.325Z,12.55
2023-05-07T17:57:35.306Z,13.10
2023-05-07T18:01:37.431Z,8.98
2023-05-07T18:05:39.935Z,13.90
2023-05-07T18:09:41.622Z,12.25
2023-05-07T18:13:43.275Z,12.02
2023-05-07T18:17:45.355Z,10.85
2023-05-07T18:21:47.044Z,10.15
2023-05-07T18:25:48.746Z,8.85
2023-05-07T18:29:50.471Z,7.05
2023-05-07T18:33:52.869Z,8.23
2023-05-07T18:37:54.580Z,7.35
2023-05-07T18:41:57.813Z,6.70
2023-05-07T18:45:59.573Z,8.20
2023-05-07T18:50:01.254Z,7.20
2023-05-07T18:54:03.226Z,7.53
2023-05-07T18:58:04.962Z,8.87
2023-05-07T19:02:06.639Z,9.75
2023-05-07T19:06:08.308Z,6.05
2023-05-07T19:10:10.817Z,6.57
2023-05-07T19:14:12.568Z,9.25
2023-05-07T19:18:14.329Z,9.63
2023-05-07T19:22:16.578Z,12.23
2023-05-07T19:26:19.725Z,7.70
2023-05-07T19:30:21.552Z,9.05
2023-05-07T19:34:23.688Z,10.98
2023-05-07T19:38:26.377Z,11.82
2023-05-07T19:42:28.055Z,8.52
2023-05-07T19:46:29.777Z,6.50
2023-05-07T19:50:31.397Z,7.60
2023-05-07T19:54:33.114Z,13.38
2023-05-07T19:58:35.346Z,10.73
2023-05-07T20:02:37.075Z,12.63
2023-05-07T20:06:38.775Z,9.10
2023-05-07T20:10:40.928Z,12.07
2023-05-07T20:14:42.589Z,11.27
2023-05-07T20:18:44.268Z,13.00
2023-05-07T20:22:46.110Z,10.85
2023-05-07T20:26:47.828Z,11.93
2023-05-07T20:30:49.663Z,8.27
2023-05-07T20:34:52.561Z,12.68
2023-05-07T20:38:54.355Z,17.08
2023-05-07T20:42:56.074Z,17.00
2023-05-07T20:46:57.767Z,9.10
2023-05-07T20:51:01.165Z,12.98
2023-05-07T20:55:02.926Z,11.65
2023-05-07T20:59:05.058Z,9.18
2023-05-07T21:03:06.878Z,9.40
2023-05-07T21:07:09.639Z,12.82
2023-05-07T21:11:12.930Z,10.02
2023-05-07T21:15:14.735Z,11.95
2023-05-07T21:19:16.492Z,15.45
2023-05-07T21:23:18.603Z,13.77
2023-05-07T21:27:20.353Z,9.47
2023-05-07T21:31:22.213Z,10.43
2023-05-07T21:35:23.858Z,10.07
2023-05-07T21:39:25.646Z,11.63
2023-05-07T21:43:27.310Z,16.25
2023-05-07T21:47:29.369Z,13.82
2023-05-07T21:51:34.446Z,12.67
2023-05-07T21:55:36.346Z,10.05
2023-05-07T21:59:38.144Z,14.95
2023-05-07T22:03:41.114Z,9.70
2023-05-07T22:07:42.872Z,8.77
2023-05-07T22:11:44.620Z,16.92
2023-05-07T22:15:56.811Z,10.80
2023-05-07T22:19:59.383Z,7.35
2023-05-07T22:24:01.076Z,12.55
2023-05-07T22:28:02.850Z,9.20
2023-05-07T22:32:04.750Z,8.65
2023-05-07T22:36:07.773Z,5.33
2023-05-07T22:40:09.958Z,7.63
2023-05-07T22:44:11.970Z,4.97
2023-05-07T22:48:13.674Z,6.55
2023-05-07T22:52:15.958Z,4.88
2023-05-07T22:56:18.389Z,6.32
2023-05-07T23:00:20.875Z,4.30
2023-05-07T23:04:22.501Z,4.53
2023-05-07T23:08:24.216Z,6.57
2023-05-07T23:12:25.944Z,6.35
2023-05-07T23:16:28.725Z,8.00
2023-05-07T23:24:34.450Z,11.33
2023-05-07T23:28:36.160Z,10.13
2023-05-07T23:32:37.926Z,14.60
2023-05-07T23:36:39.700Z,14.05
2023-05-07T23:40:41.429Z,17.20
2023-05-07T23:44:43.196Z,17.15
2023-05-07T23:48:45.258Z,17.33
2023-05-07T23:52:46.931Z,21.45
2023-05-07T23:56:48.589Z,16.05
